createdAt,value
2018-08-10T00:12:59.194Z,60.44
2018-08-10T00:21:20.239Z,59.49
2018-08-10T00:29:41.348Z,61.08
2018-08-10T00:38:02.410Z,59.72
2018-08-10T00:46:23.426Z,59.74
2018-08-10T00:54:44.443Z,60.49
2018-08-10T01:03:05.797Z,59.83
2018-08-10T01:11:26.900Z,59.53
2018-08-10T01:19:47.930Z,59.47
2018-08-10T01:28:08.987Z,59.59
2018-08-10T01:36:30.000Z,59.44
2018-08-10T01:44:50.997Z,60.20
2018-08-10T01:53:12.115Z,59.58
2018-08-10T02:01:33.181Z,59.73
2018-08-10T02:09:54.291Z,59.63
2018-08-10T02:18:15.295Z,58.46
2018-08-10T02:26:36.299Z,59.59
2018-08-10T02:34:57.330Z,59.49
2018-08-10T02:43:18.332Z,59.38
2018-08-10T02:51:39.416Z,59.39
2018-08-10T03:00:00.495Z,58.42
2018-08-10T03:08:21.571Z,58.65
2018-08-10T03:16:42.607Z,58.00
2018-08-10T03:25:03.738Z,58.79
2018-08-10T03:33:24.763Z,59.80
2018-08-10T03:41:45.885Z,59.81
2018-08-10T03:50:06.955Z,59.98
2018-08-10T03:58:27.980Z,58.93
2018-08-10T04:06:49.051Z,59.79
2018-08-10T04:15:10.473Z,61.11
2018-08-10T04:23:31.502Z,61.77
2018-08-10T04:31:52.666Z,63.67
2018-08-10T04:40:13.739Z,64.73
2018-08-10T04:48:34.781Z,65.79
2018-08-10T04:56:56.106Z,65.54
2018-08-10T05:05:17.133Z,66.02
2018-08-10T05:13:38.503Z,64.48
2018-08-10T05:21:59.550Z,63.90
2018-08-10T05:30:20.618Z,64.30
2018-08-10T05:38:41.620Z,63.95
2018-08-10T05:47:02.700Z,64.54
2018-08-10T05:55:23.776Z,64.29
2018-08-10T06:03:44.966Z,63.19
2018-08-10T06:12:06.054Z,63.51
2018-08-10T06:20:27.075Z,61.55
2018-08-10T06:28:48.183Z,61.18
2018-08-10T06:37:09.157Z,59.91
2018-08-10T06:45:30.152Z,58.48
2018-08-10T06:53:51.210Z,57.70
2018-08-10T07:02:12.251Z,58.44
2018-08-10T07:10:33.343Z,57.25
2018-08-10T07:18:54.387Z,56.37
2018-08-10T07:27:15.447Z,54.67
2018-08-10T07:35:36.475Z,52.64
2018-08-10T07:43:57.623Z,50.25
2018-08-10T07:52:18.719Z,50.10
2018-08-10T08:00:40.018Z,49.26
2018-08-10T08:09:02.192Z,48.24
2018-08-10T08:17:23.215Z,47.14
2018-08-10T08:25:44.289Z,45.78
2018-08-10T08:34:05.632Z,45.19
2018-08-10T08:42:26.732Z,45.25
2018-08-10T08:50:47.802Z,45.48
2018-08-10T08:59:08.913Z,47.43
2018-08-10T09:07:30.071Z,43.73
2018-08-10T09:15:51.040Z,43.58
2018-08-10T09:24:12.054Z,41.20
2018-08-10T09:32:33.183Z,40.64
2018-08-10T09:40:54.249Z,39.14
2018-08-10T09:49:15.375Z,40.13
2018-08-10T09:57:36.426Z,37.96
2018-08-10T10:05:57.551Z,36.85
2018-08-10T10:14:18.554Z,35.92
2018-08-10T10:22:40.684Z,35.45
2018-08-10T10:31:01.706Z,35.63
2018-08-10T10:39:22.770Z,35.23
2018-08-10T10:47:44.199Z,34.67
2018-08-10T10:56:05.611Z,32.62
2018-08-10T11:04:26.654Z,30.13
2018-08-10T11:12:47.775Z,31.89
2018-08-10T11:21:08.802Z,33.87
2018-08-10T11:29:29.844Z,33.42
2018-08-10T11:37:51.259Z,32.61
2018-08-10T11:46:12.297Z,30.37
2018-08-10T11:54:33.343Z,27.77
2018-08-10T12:02:54.371Z,28.55
2018-08-10T12:11:15.391Z,25.22
2018-08-10T12:19:36.425Z,23.74
2018-08-10T12:27:57.445Z,20.35
2018-08-10T12:36:18.511Z,18.29
2018-08-10T12:44:39.960Z,15.90
2018-08-10T12:53:00.970Z,15.53
2018-08-10T13:01:22.056Z,18.25
2018-08-10T13:09:43.505Z,16.89
2018-08-10T13:18:04.577Z,16.78
2018-08-10T13:26:25.653Z,16.41
2018-08-10T13:34:47.008Z,14.09
2018-08-10T13:43:08.020Z,11.97
2018-08-10T13:51:31.111Z,11.39
2018-08-10T13:59:52.277Z,11.99
2018-08-10T14:08:13.383Z,12.38
2018-08-10T14:16:34.464Z,12.75
2018-08-10T14:24:55.485Z,15.50
2018-08-10T14:33:16.549Z,14.60
2018-08-10T14:41:37.712Z,15.18
2018-08-10T14:49:58.796Z,13.27
2018-08-10T14:58:19.883Z,11.30
2018-08-10T15:06:40.908Z,10.64
2018-08-10T15:15:01.932Z,12.22
2018-08-10T15:23:23.966Z,12.39
2018-08-10T15:31:45.988Z,15.90
2018-08-10T15:40:07.026Z,13.69
2018-08-10T15:48:28.219Z,14.97
2018-08-10T15:56:49.333Z,14.74
2018-08-10T16:05:10.353Z,17.30
2018-08-10T16:13:31.389Z,18.15
2018-08-10T16:21:54.417Z,14.25
2018-08-10T16:30:15.862Z,14.61
2018-08-10T16:38:36.914Z,16.75
2018-08-10T16:46:58.260Z,18.62
2018-08-10T16:55:19.311Z,17.50
2018-08-10T17:03:40.711Z,18.65
2018-08-10T17:12:01.850Z,20.05
2018-08-10T17:20:22.956Z,20.70
2018-08-10T17:28:45.032Z,20.65
2018-08-10T17:37:06.027Z,19.51
2018-08-10T17:45:27.298Z,21.10
2018-08-10T17:53:48.410Z,20.92
2018-08-10T18:02:11.501Z,19.09
2018-08-10T18:10:32.539Z,18.28
2018-08-10T18:18:53.536Z,18.32
2018-08-10T18:27:14.624Z,21.94
2018-08-10T18:35:35.667Z,25.07
2018-08-10T18:43:56.958Z,25.94
2018-08-10T18:52:18.080Z,27.33
2018-08-10T19:00:40.146Z,27.33
2018-08-10T19:09:01.187Z,29.35
2018-08-10T19:17:22.211Z,29.95
2018-08-10T19:25:43.237Z,30.12
2018-08-10T19:34:05.335Z,30.63
2018-08-10T19:42:32.110Z,31.85
2018-08-10T19:50:53.205Z,31.59
2018-08-10T19:59:14.212Z,31.53
2018-08-10T20:07:35.200Z,32.22
2018-08-10T20:15:56.250Z,32.21
2018-08-10T20:24:17.282Z,33.24
2018-08-10T20:49:31.743Z,34.18
2018-08-10T21:06:23.578Z,35.66
2018-08-10T21:14:44.618Z,37.00
2018-08-10T21:23:05.617Z,36.25
2018-08-10T21:39:52.812Z,36.27
2018-08-10T21:48:13.866Z,36.34
2018-08-10T21:56:34.888Z,36.22
2018-08-10T22:04:56.016Z,36.73
2018-08-10T22:13:17.029Z,37.11
2018-08-10T22:21:40.176Z,36.16
2018-08-10T22:30:02.303Z,36.62
2018-08-10T22:38:23.350Z,36.69
2018-08-10T22:46:44.344Z,37.83
2018-08-10T22:55:05.360Z,37.74
2018-08-10T23:03:26.472Z,38.14
2018-08-10T23:11:47.536Z,38.30
2018-08-10T23:20:08.679Z,39.37
2018-08-10T23:28:29.827Z,39.48
2018-08-10T23:36:50.847Z,38.30
2018-08-10T23:45:11.893Z,39.87
2018-08-10T23:53:32.936Z,38.84
